22 maja 2022

Czas Kod Pogoda Temp. Widoczność Chmury Wiatr METAR/SPECI
08:20
V
14 °C 10 km+ - 090°   090° 3 kt METAR EDLV 220620Z 09003KT 040V140 CAVOK 14/10 Q1017
07:50
V
13 °C 10 km+ - Var   Var 2 kt METAR EDLV 220550Z VRB02KT CAVOK 13/10 Q1018
07:20
V
12 °C 10 km+ - Var   Var 1 kt METAR EDLV 220520Z VRB01KT CAVOK 12/10 Q1017
06:50
V
11 °C 10 km+ - Var   Var 1 kt METAR EDLV 220450Z VRB01KT CAVOK 11/10 Q1018
06:20
V
10 °C 10 km+ - Var   Var 1 kt METAR EDLV 220420Z VRB01KT 9999 SCT041 10/09 Q1018
05:50
V
10 °C 10 km+ 4.000 ft 020°   020° 2 kt METAR EDLV 220350Z 02002KT 9999 BKN040 10/09 Q1018
05:20
V
10 °C 10 km+ - Var   Var 2 kt METAR EDLV 220320Z VRB02KT 9999 SCT039 10/09 Q1018
04:50
V
10 °C 10 km+ 5.000 ft Var   Var 1 kt METAR EDLV 220250Z AUTO VRB01KT 9999 R27///// // SCT039/// BKN050/// 10/09 Q1018
04:20
V
10 °C 10 km+ 5.700 ft Var   000° 0 kt METAR EDLV 220220Z AUTO 00000KT 9999 R27///// // SCT041/// BKN057/// 10/09 Q1018
03:50
V
9 °C 10 km+ - Var   000° 0 kt METAR EDLV 220150Z AUTO 00000KT 9999 R27///// // SCT051/// 09/08 Q1019
03:20
V
10 °C 10 km+ - Var   000° 0 kt METAR EDLV 220120Z AUTO 00000KT 9999 R27///// // FEW057/// 10/09 Q1019
02:50
V
11 °C 10 km+ 22.000 ft 100°   100° 1 kt METAR EDLV 220050Z AUTO 10001KT 9999 R27///// // FEW050/// BKN220/// 11/09 Q1019
02:20
V
11 °C 10 km+ 22.000 ft 070°   070° 1 kt METAR EDLV 220020Z AUTO 07001KT 9999 R27///// // SCT058/// BKN220/// 11/09 Q1019
01:50
V
12 °C 10 km+ 22.000 ft Var   Var 2 kt METAR EDLV 212350Z AUTO VRB02KT 9999 R27///// // FEW056/// BKN220/// 12/09 Q1019
01:20
V
12 °C 10 km+ 5.700 ft Var   Var 1 kt METAR EDLV 212320Z AUTO VRB01KT 9999 R27///// // BKN057/// 12/09 Q1020
00:50
V
12 °C 10 km+ 5.500 ft Var   Var 2 kt METAR EDLV 212250Z AUTO VRB02KT 9999 R27///// // BKN055/// 12/10 Q1020
00:20
V
12 °C 10 km+ - Var   Var 1 kt METAR EDLV 212220Z AUTO VRB01KT 9999 R27///// // NCD 12/09 Q1019

21 maja 2022

Czas Kod Pogoda Temp. Widoczność Chmury Wiatr METAR/SPECI
23:50
V
12 °C 10 km+ - Var   000° 0 kt METAR EDLV 212150Z 00000KT CAVOK 12/09 Q1020
23:20
V
12 °C 10 km+ - 350°   350° 1 kt METAR EDLV 212120Z 35001KT CAVOK 12/09 Q1020
22:50
V
13 °C 10 km+ - Var   000° 0 kt METAR EDLV 212050Z 00000KT 9999 R27///// NSC 13/10 Q1020
22:20
V
14 °C 10 km+ - 360°   360° 1 kt METAR EDLV 212020Z 36001KT CAVOK 14/10 Q1020
21:50
V
15 °C 10 km+ - Var   Var 1 kt METAR EDLV 211950Z VRB01KT 9999 NSC 15/09 Q1020
21:20
V
16 °C 10 km+ - 330°   330° 2 kt METAR EDLV 211920Z 33002KT 9999 NSC 16/10 Q1020
20:50
V
17 °C 10 km+ - 320°   320° 4 kt METAR EDLV 211850Z 32004KT 9999 FEW043 17/09 Q1020
20:20
V
18 °C 10 km+ - 320°   320° 4 kt METAR EDLV 211820Z 32004KT 290V350 9999 FEW042 18/10 Q1020
19:50
V
18 °C 10 km+ - 320°   320° 4 kt METAR EDLV 211750Z 32004KT 280V360 9999 SCT048 18/10 Q1020
19:20
V
18 °C 10 km+ 4.500 ft 310°   310° 5 kt METAR EDLV 211720Z 31005KT 270V350 9999 BKN045 18/10 Q1020
18:50
V
18 °C 10 km+ - 300°   300° 6 kt METAR EDLV 211650Z 30006KT 270V350 9999 FEW044 18/09 Q1020
18:20
V
19 °C 10 km+ - 290°   290° 8 kt METAR EDLV 211620Z 29008KT 9999 FEW044 19/09 Q1020
17:50
V
19 °C 10 km+ - 310°   310° 6 kt METAR EDLV 211550Z 31006KT 270V360 9999 FEW043 19/09 Q1020
17:20
V
19 °C 10 km+ - 290°   290° 5 kt METAR EDLV 211520Z 29005KT 260V320 9999 FEW046 19/09 Q1021
16:50
V
19 °C 10 km+ - 290°   290° 7 kt METAR EDLV 211450Z 29007KT 250V340 9999 FEW044 19/09 Q1021
16:20
V
18 °C 10 km+ - 270°   270° 11 kt METAR EDLV 211420Z 27011KT 9999 FEW042 18/10 Q1021
15:50
V
19 °C 10 km+ 4.200 ft 280°   280° 10 kt METAR EDLV 211350Z 28010KT 250V310 9999 BKN042 19/09 Q1021
15:20
V
19 °C 10 km+ 3.800 ft 280°   280° 9 kt METAR EDLV 211320Z 28009KT 250V320 9999 BKN038 19/10 Q1021
14:50
V
18 °C 10 km+ - 260°   260° 9 kt METAR EDLV 211250Z 26009KT 230V310 9999 SCT035 18/10 Q1021
14:20
V
18 °C 10 km+ 4.000 ft 260°   260° 11 kt METAR EDLV 211220Z 26011KT 9999 FEW034 BKN040 18/10 Q1021
13:50
V
17 °C 10 km+ - 270°   270° 11 kt METAR EDLV 211150Z 27011KT 240V300 9999 FEW032 17/11 Q1021
13:20
V
17 °C 10 km+ - 260°   260° 10 kt METAR EDLV 211120Z 26010KT 9999 SCT032 17/11 Q1021
12:50
V
17 °C 10 km+ 3.900 ft 270°   270° 10 kt METAR EDLV 211050Z 27010KT 9999 BKN039 BKN048 17/10 Q1021
12:20
V
17 °C 10 km+ 4.600 ft 270°   270° 12 kt METAR EDLV 211020Z 27012KT 240V300 9999 SCT031 BKN046 17/11 Q1021
11:50
M
16 °C 10 km+ 2.700 ft 250°   250° 12 kt METAR EDLV 210950Z 25012KT 9999 BKN027 BKN036 BKN047 16/10 Q1021
11:20
V
16 °C 10 km+ 4.000 ft 250°   250° 12 kt METAR EDLV 210920Z 25012KT 9999 FEW025 BKN040 BKN049 16/10 Q1021
10:50
V
15 °C 10 km+ 4.200 ft 240°   240° 13 kt METAR EDLV 210850Z 24013KT 210V280 9999 FEW020 SCT036 BKN042 15/10 Q1021
10:20
M
15 °C 10 km+ 2.500 ft 240°   240° 10 kt METAR EDLV 210820Z 24010KT 9999 SCT017 BKN025 15/10 Q1021
09:50
M
14 °C 10 km+ 1.700 ft 250°   250° 9 kt METAR EDLV 210750Z 25009KT 220V280 9999 OVC017 14/11 Q1021
09:20
M
14 °C 10 km+ 1.500 ft 250°   250° 10 kt METAR EDLV 210720Z 25010KT 9999 BKN015 OVC020 14/10 Q1021
08:50
M
13 °C 10 km+ 1.500 ft 250°   250° 10 kt METAR EDLV 210650Z 25010KT 9999 BKN015 OVC018 13/10 Q1020
08:20
M
13 °C 10 km+ 1.500 ft 240°   240° 11 kt METAR EDLV 210620Z 24011KT 9999 OVC015 13/10 Q1020
07:50
M
13 °C 10 km+ 1.700 ft 240°   240° 10 kt METAR EDLV 210550Z 24010KT 210V270 9999 BKN017 OVC020 13/10 Q1020
07:20
M
13 °C 10 km+ 2.400 ft 240°   240° 10 kt METAR EDLV 210520Z 24010KT 9999 FEW016 OVC024 13/10 Q1020
06:50
M
12 °C 10 km+ 2.200 ft 230°   230° 9 kt METAR EDLV 210450Z 23009KT 9999 SCT015 BKN022 OVC028 12/10 Q1020
06:20
M
12 °C 10 km+ 2.600 ft 240°   240° 9 kt METAR EDLV 210420Z 24009KT 9999 SCT017 BKN026 OVC031 12/10 Q1019
05:50
M
12 °C 10 km+ 1.900 ft 240°   240° 10 kt METAR EDLV 210350Z 24010KT 9999 OVC019 12/10 Q1019
05:20
M
12 °C 10 km+ 1.700 ft 240°   240° 10 kt METAR EDLV 210320Z 24010KT 9999 OVC017 12/09 Q1019
04:50
M
12 °C 10 km+ 1.700 ft 240°   240° 10 kt METAR EDLV 210250Z AUTO 24010KT 9999 // OVC017/// 12/10 Q1019
04:20
M
12 °C 10 km+ 1.700 ft 240°   240° 10 kt METAR EDLV 210220Z AUTO 24010KT 9999 // OVC017/// 12/10 Q1019
03:50
M
12 °C 10 km+ 1.800 ft 230°   230° 9 kt METAR EDLV 210150Z AUTO 23009KT 9999 // OVC018/// 12/09 Q1019
03:20
V
12 °C 10 km+ 6.600 ft 230°   230° 9 kt METAR EDLV 210120Z AUTO 23009KT 9999 // FEW020/// BKN066/// 12/09 Q1019
02:50
V
11 °C 10 km+ - 220°   220° 8 kt METAR EDLV 210050Z AUTO 22008KT 9999 // SCT068/// 11/10 Q1019
02:20
V
11 °C 10 km+ - 220°   220° 7 kt METAR EDLV 210020Z AUTO 22007KT 9999 // NCD 11/09 Q1019
01:50
V
11 °C 10 km+ - 220°   220° 6 kt METAR EDLV 202350Z AUTO 22006KT 9999 // NCD 11/09 Q1020
01:20
V
11 °C 10 km+ - 220°   220° 5 kt METAR EDLV 202320Z AUTO 22005KT 9999 // NCD 11/09 Q1020
00:50
V
11 °C 10 km+ - 250°   250° 7 kt METAR EDLV 202250Z AUTO 25007KT 9999 // NCD 11/09 Q1020
00:20
V
12 °C 10 km+ - 240°   240° 8 kt METAR EDLV 202220Z 24008KT CAVOK 12/10 Q1020

20 maja 2022

Czas Kod Pogoda Temp. Widoczność Chmury Wiatr METAR/SPECI
23:50
V
12 °C 10 km+ - 260°   260° 9 kt METAR EDLV 202150Z 26009KT 9999 FEW018 12/10 Q1019
23:20
V
13 °C 10 km+ 3.000 ft 260°   260° 10 kt METAR EDLV 202120Z 26010KT 9999 FEW018 SCT025 BKN030 13/10 Q1019
22:50
V
13 °C 10 km+ 3.100 ft 260°   260° 11 kt METAR EDLV 202050Z 26011KT 9999 SCT019 BKN031 13/10 Q1018
22:20
M
13 °C 10 km+ 1.900 ft 270°   270° 12 kt METAR EDLV 202020Z 27012KT 240V300 9999 BKN019 BKN023 BKN034 13/10 Q1018
21:50
M
14 °C 10 km+ 1.800 ft 270°   270° 12 kt METAR EDLV 201950Z 27012KT 9999 FEW014 BKN018 BKN043 14/11 Q1018
21:20
M
14 °C 10 km+ 1.400 ft 280°   280° 11 kt METAR EDLV 201920Z 28011KT 9999 BKN014 BKN021 OVC037 14/11 Q1017
20:50
M
14 °C 10 km+ 1.400 ft 280°   280° 9 kt METAR EDLV 201850Z 28009KT 9999 FEW012 BKN014 OVC023 14/12 Q1017
20:20
M
14 °C 10 km+ 1.200 ft 280°   280° 14 kt METAR EDLV 201820Z 28014KT 9999 -RA BKN012 OVC015 14/12 Q1016
19:50
M
15 °C 10 km+ 1.100 ft 280°   280° 14 kt METAR EDLV 201750Z 28014KT 260V320 9999 BKN011 OVC018 15/12 Q1016
19:20
M
15 °C 10 km+ 1.100 ft 270°   270° 14 kt METAR EDLV 201720Z 27014KT 9999 OVC011 15/13 Q1015
18:50
I
15 °C 10 km+ 900 ft 280°   280° 14 kt METAR EDLV 201650Z 28014KT 9999 BKN009 BKN016 15/13 Q1014
18:20
M
17 °C 10 km+ 1.100 ft 280°   280° 18 29 kt METAR EDLV 201620Z 28018G29KT 9999 BKN011 BKN015 OVC020 17/15 Q1013
17:50
M
20 °C 10 km+ 2.100 ft 230°   230° 14 24 kt METAR EDLV 201550Z 23014G24KT 9999 BKN021 OVC028 20/17 Q1012
17:20
M
20 °C 10 km+ 2.300 ft 220°   220° 16 26 kt METAR EDLV 201520Z 22016G26KT 9999 BKN023 20/17 Q1012
16:50
V
20 °C 10 km+ 3.600 ft 210°   210° 14 25 kt METAR EDLV 201450Z 21014G25KT 170V240 9999 FEW023 SCT027 OVC036 20/17 Q1012
16:20
V
21 °C 8 km - 200°   200° 9 kt METAR EDLV 201420Z 20009KT 160V220 8000 -RA NSC 21/18 Q1012
15:50
M
21 °C 7 km - 150°   150° 7 kt METAR EDLV 201350Z 15007KT 7000 FEW023 21/19 Q1012
15:20
I
19 °C 3,6 km 3.800 ft 100°   100° 5 kt METAR EDLV 201320Z 10005KT 040V120 3600 -RA VCTS FEW026 BKN038 19/18 Q1013
14:50
M
20 °C 6 km - 110°   110° 3 kt METAR EDLV 201250Z 11003KT 080V140 6000 TSRA SCT060CB 20/17 Q1014
14:20
V
21 °C 10 km+ - 090°   090° 5 kt METAR EDLV 201220Z 09005KT 030V130 CAVOK 21/15 Q1014
13:50
V
22 °C 10 km+ - 080°   080° 7 kt METAR EDLV 201150Z 08007KT 010V140 CAVOK 22/15 Q1015
13:20
V
21 °C 10 km+ - 090°   090° 5 kt METAR EDLV 201120Z 09005KT 020V150 CAVOK 21/14 Q1015
12:50
V
21 °C 10 km+ - 090°   090° 7 kt METAR EDLV 201050Z 09007KT 020V120 CAVOK 21/14 Q1016
12:20
V
21 °C 10 km+ - 120°   120° 7 kt METAR EDLV 201020Z 12007KT 060V150 CAVOK 21/13 Q1017
11:50
V
20 °C 10 km+ - 090°   090° 6 kt METAR EDLV 200950Z 09006KT 030V140 CAVOK 20/13 Q1018
11:20
V
19 °C 10 km+ - 070°   070° 5 kt METAR EDLV 200920Z 07005KT 010V120 CAVOK 19/11 Q1019
10:50
V
19 °C 10 km+ - 110°   110° 6 kt METAR EDLV 200850Z 11006KT 050V140 CAVOK 19/12 Q1019
10:20
V
18 °C 10 km+ - 080°   080° 5 kt METAR EDLV 200820Z 08005KT 020V150 9999 18/10 Q1019
09:50
V
18 °C 10 km+ - 070°   070° 3 kt METAR EDLV 200750Z 07003KT 350V140 CAVOK 18/11 Q1020
09:20
V
17 °C 10 km+ - 070°   070° 3 kt METAR EDLV 200720Z 07003KT 340V120 CAVOK 17/10 Q1020
08:50
V
16 °C 10 km+ 3.100 ft Var   Var 2 kt METAR EDLV 200650Z VRB02KT 9999 BKN031 16/12 Q1020
08:20
V
15 °C 9 km - 050°   050° 3 kt METAR EDLV 200620Z 05003KT 360V170 9000 SCT036 15/13 Q1021
07:50
M
14 °C 5 km - 040°   040° 3 kt METAR EDLV 200550Z 04003KT 360V090 5000 BR FEW001 14/13 Q1021
07:20
I
13 °C 2 km - Var   Var 2 kt METAR EDLV 200520Z VRB02KT 2000 BR FEW001 13/13 Q1021
06:50
I
10 °C 4,5 km - Var   Var 2 kt METAR EDLV 200450Z VRB02KT 4500 R27/0375U BR FEW004 10/10 Q1021
Starsze dane

Pobierz naszą aplikację

Łatwy dostęp do całej pogody lotniczej na telefonie komórkowym i tablecie.
Z wieloma funkcjami niedostępnymi na stronie internetowej, takimi jak wsparcie offline i osobista lista lotnisk.

My i osoby trzecie śledzimy twoje zachowanie w internecie na naszej stronie za pomocą plików cookie. Jeśli kontynuujesz, zakładamy, że zgadzasz się z naszą polityką plików cookie. Dowiedz się więcej